Loehmanns Plaza, New York
Current Conditions -  °F | °C
As of 9:54 PM on Friday 28 Nov 2014 (Local Time) from KROC Reporting Station
Overcast Overcast  
Wind Chill: 19°   Ceiling: 2700
Heat Index: 25°   Visibility: 10mi
Dew Point: 17°   Wind: 5mph
Humidity: 72%   Direction: 220°SW
Pressure: 30.21"   Gusts: NA
Location:  43.1139°N, 77.556°W
Report Text: KROC 290254Z 22004KT 10SM BKN027 OVC035 M04/M08 A3021 RMK AO2 SLP243 T10391083 56004
Loading
Personal Weather Stations






























Interactive Weather Map New forecast layout! Learn more

10-Day Weather Forecast

Advertisements
Track Severe Weather on mobile